sensor_id;sensor_type;location;lat;lon;timestamp;pressure;altitude;pressure_sealevel;temperature;humidity
44309;BME280;30022;55.846;37.340;2023-04-25T00:00:34;46586.59;;;-143.51;35.99
44309;BME280;30022;55.846;37.340;2023-04-25T00:03:00;46570.78;;;-143.51;36.34
44309;BME280;30022;55.846;37.340;2023-04-25T00:05:26;46551.06;;;-143.51;36.04
44309;BME280;30022;55.846;37.340;2023-04-25T00:07:51;46582.66;;;-143.51;36.55
44309;BME280;30022;55.846;37.340;2023-04-25T00:10:17;46564.88;;;-143.51;36.27
44309;BME280;30022;55.846;37.340;2023-04-25T00:12:44;46564.88;;;-143.51;36.71
44309;BME280;30022;55.846;37.340;2023-04-25T00:15:11;46584.63;;;-143.51;36.60
44309;BME280;30022;55.846;37.340;2023-04-25T00:17:37;46547.09;;;-143.51;36.90
44309;BME280;30022;55.846;37.340;2023-04-25T00:20:03;46558.94;;;-143.51;37.15
44309;BME280;30022;55.846;37.340;2023-04-25T00:22:34;46582.66;;;-143.51;37.11
44309;BME280;30022;55.846;37.340;2023-04-25T00:25:06;46562.91;;;-143.51;37.59
44309;BME280;30022;55.846;37.340;2023-04-25T00:27:41;46560.91;;;-143.51;37.77
44309;BME280;30022;55.846;37.340;2023-04-25T00:30:07;46566.84;;;-143.51;37.67
44309;BME280;30022;55.846;37.340;2023-04-25T00:32:33;46551.06;;;-143.51;37.71
44309;BME280;30022;55.846;37.340;2023-04-25T00:34:59;46562.91;;;-143.51;37.62
44309;BME280;30022;55.846;37.340;2023-04-25T00:37:24;46566.84;;;-143.51;37.80
44309;BME280;30022;55.846;37.340;2023-04-25T00:39:50;46551.06;;;-143.51;37.96
44309;BME280;30022;55.846;37.340;2023-04-25T00:42:16;46568.81;;;-143.51;38.79
44309;BME280;30022;55.846;37.340;2023-04-25T00:44:42;46555.00;;;-143.51;38.91
44309;BME280;30022;55.846;37.340;2023-04-25T00:47:08;46564.88;;;-143.51;39.06
44309;BME280;30022;55.846;37.340;2023-04-25T00:49:36;46537.22;;;-143.51;38.92
44309;BME280;30022;55.846;37.340;2023-04-25T00:52:01;46566.84;;;-143.51;38.98
44309;BME280;30022;55.846;37.340;2023-04-25T00:54:27;46549.06;;;-143.51;39.58
44309;BME280;30022;55.846;37.340;2023-04-25T00:56:53;46570.78;;;-143.51;39.84
44309;BME280;30022;55.846;37.340;2023-04-25T00:59:19;46555.00;;;-143.51;41.09
44309;BME280;30022;55.846;37.340;2023-04-25T01:01:44;46564.88;;;-143.51;40.64
44309;BME280;30022;55.846;37.340;2023-04-25T01:04:10;46560.91;;;-143.51;40.47
44309;BME280;30022;55.846;37.340;2023-04-25T01:06:36;46568.81;;;-143.51;40.52
44309;BME280;30022;55.846;37.340;2023-04-25T01:09:02;46574.75;;;-143.51;40.25
44309;BME280;30022;55.846;37.340;2023-04-25T01:11:29;46564.88;;;-143.51;40.84
44309;BME280;30022;55.846;37.340;2023-04-25T01:13:55;46549.06;;;-143.51;41.26
44309;BME280;30022;55.846;37.340;2023-04-25T01:16:21;46570.78;;;-143.51;40.86
44309;BME280;30022;55.846;37.340;2023-04-25T01:18:49;46553.03;;;-143.51;40.59
44309;BME280;30022;55.846;37.340;2023-04-25T01:21:16;46574.75;;;-143.51;40.61
44309;BME280;30022;55.846;37.340;2023-04-25T01:23:41;46580.66;;;-143.51;41.12
44309;BME280;30022;55.846;37.340;2023-04-25T01:26:11;46560.91;;;-143.51;41.47
44309;BME280;30022;55.846;37.340;2023-04-25T01:28:37;46570.78;;;-143.51;42.05
44309;BME280;30022;55.846;37.340;2023-04-25T01:31:03;46560.91;;;-143.51;42.08
44309;BME280;30022;55.846;37.340;2023-04-25T01:33:29;46562.91;;;-143.51;42.20
44309;BME280;30022;55.846;37.340;2023-04-25T01:35:55;46574.75;;;-143.51;43.13
44309;BME280;30022;55.846;37.340;2023-04-25T01:38:21;46566.84;;;-143.51;43.25
44309;BME280;30022;55.846;37.340;2023-04-25T01:40:46;46590.53;;;-143.51;43.77
44309;BME280;30022;55.846;37.340;2023-04-25T01:43:14;46562.91;;;-143.51;44.11
44309;BME280;30022;55.846;37.340;2023-04-25T01:45:41;46545.13;;;-143.51;44.10
44309;BME280;30022;55.846;37.340;2023-04-25T01:48:08;46566.84;;;-143.51;44.47
44309;BME280;30022;55.846;37.340;2023-04-25T01:50:35;46553.03;;;-143.51;45.19
44309;BME280;30022;55.846;37.340;2023-04-25T01:53:01;46555.00;;;-143.51;45.13
44309;BME280;30022;55.846;37.340;2023-04-25T01:55:27;46568.81;;;-143.51;45.95
44309;BME280;30022;55.846;37.340;2023-04-25T01:58:06;46533.28;;;-143.51;45.45
44309;BME280;30022;55.846;37.340;2023-04-25T02:00:53;46582.66;;;-143.51;45.39
44309;BME280;30022;55.846;37.340;2023-04-25T02:03:19;46580.66;;;-143.51;45.00
44309;BME280;30022;55.846;37.340;2023-04-25T02:05:45;46572.78;;;-143.51;45.06
44309;BME280;30022;55.846;37.340;2023-04-25T02:08:11;46553.03;;;-143.51;46.42
44309;BME280;30022;55.846;37.340;2023-04-25T02:10:37;46549.06;;;-143.51;45.53
44309;BME280;30022;55.846;37.340;2023-04-25T02:13:12;46555.00;;;-143.51;45.50
44309;BME280;30022;55.846;37.340;2023-04-25T02:16:03;46555.00;;;-143.51;44.92
44309;BME280;30022;55.846;37.340;2023-04-25T02:19:01;46582.66;;;-143.51;44.90
44309;BME280;30022;55.846;37.340;2023-04-25T02:21:29;46580.66;;;-143.51;44.99
44309;BME280;30022;55.846;37.340;2023-04-25T02:23:56;46566.84;;;-143.51;44.57
44309;BME280;30022;55.846;37.340;2023-04-25T02:26:21;46533.28;;;-143.51;44.54
44309;BME280;30022;55.846;37.340;2023-04-25T02:28:50;46566.84;;;-143.51;44.52
44309;BME280;30022;55.846;37.340;2023-04-25T02:31:15;46570.78;;;-143.51;45.55
44309;BME280;30022;55.846;37.340;2023-04-25T02:33:41;46549.06;;;-143.51;45.92
44309;BME280;30022;55.846;37.340;2023-04-25T02:36:07;46578.69;;;-143.51;45.30
44309;BME280;30022;55.846;37.340;2023-04-25T02:38:33;46558.94;;;-143.51;45.56
44309;BME280;30022;55.846;37.340;2023-04-25T02:40:58;46551.06;;;-143.51;46.43
44309;BME280;30022;55.846;37.340;2023-04-25T02:43:25;46545.13;;;-143.51;46.24
44309;BME280;30022;55.846;37.340;2023-04-25T02:45:51;46572.78;;;-143.51;46.26
44309;BME280;30022;55.846;37.340;2023-04-25T02:48:17;46568.81;;;-143.51;46.63
44309;BME280;30022;55.846;37.340;2023-04-25T02:50:43;46594.50;;;-143.51;46.64
44309;BME280;30022;55.846;37.340;2023-04-25T02:53:08;46584.63;;;-143.51;46.13
44309;BME280;30022;55.846;37.340;2023-04-25T02:55:40;46606.34;;;-143.51;45.71
44309;BME280;30022;55.846;37.340;2023-04-25T02:58:06;46598.44;;;-143.51;45.89
44309;BME280;30022;55.846;37.340;2023-04-25T03:00:41;46574.75;;;-143.51;45.59
44309;BME280;30022;55.846;37.340;2023-04-25T03:03:07;46582.66;;;-143.51;46.08
44309;BME280;30022;55.846;37.340;2023-04-25T03:05:33;46590.53;;;-143.51;45.98
44309;BME280;30022;55.846;37.340;2023-04-25T03:07:58;46570.78;;;-143.51;45.84
44309;BME280;30022;55.846;37.340;2023-04-25T03:10:25;46608.31;;;-143.51;45.71
44309;BME280;30022;55.846;37.340;2023-04-25T03:12:52;46582.66;;;-143.51;46.95
44309;BME280;30022;55.846;37.340;2023-04-25T03:15:18;46588.56;;;-143.51;46.70
44309;BME280;30022;55.846;37.340;2023-04-25T03:17:44;46582.66;;;-143.51;46.04
44309;BME280;30022;55.846;37.340;2023-04-25T03:20:10;46606.34;;;-143.51;46.10
44309;BME280;30022;55.846;37.340;2023-04-25T03:22:36;46586.59;;;-143.51;46.51
44309;BME280;30022;55.846;37.340;2023-04-25T03:25:02;46592.53;;;-143.51;45.88
44309;BME280;30022;55.846;37.340;2023-04-25T03:27:28;46590.53;;;-143.51;45.69
44309;BME280;30022;55.846;37.340;2023-04-25T03:29:53;46588.56;;;-143.51;45.74
44309;BME280;30022;55.846;37.340;2023-04-25T03:32:19;46594.50;;;-143.51;45.49
44309;BME280;30022;55.846;37.340;2023-04-25T03:34:45;46598.44;;;-143.51;45.81
44309;BME280;30022;55.846;37.340;2023-04-25T03:37:12;46604.38;;;-143.51;45.71
44309;BME280;30022;55.846;37.340;2023-04-25T03:39:37;46564.88;;;-143.51;45.82
44309;BME280;30022;55.846;37.340;2023-04-25T03:42:05;46620.16;;;-143.51;45.54
44309;BME280;30022;55.846;37.340;2023-04-25T03:44:31;46592.53;;;-143.51;45.48
44309;BME280;30022;55.846;37.340;2023-04-25T03:46:56;46620.16;;;-143.51;45.32
44309;BME280;30022;55.846;37.340;2023-04-25T03:49:23;46600.41;;;-143.51;45.38
44309;BME280;30022;55.846;37.340;2023-04-25T03:52:06;46620.16;;;-143.51;45.82
44309;BME280;30022;55.846;37.340;2023-04-25T03:54:38;46604.38;;;-143.51;45.21
44309;BME280;30022;55.846;37.340;2023-04-25T03:57:15;46600.41;;;-143.51;45.22
44309;BME280;30022;55.846;37.340;2023-04-25T03:59:45;46620.16;;;-143.51;46.23
44309;BME280;30022;55.846;37.340;2023-04-25T04:02:13;46610.28;;;-143.51;47.08
44309;BME280;30022;55.846;37.340;2023-04-25T04:04:39;46616.22;;;-143.51;48.25
44309;BME280;30022;55.846;37.340;2023-04-25T04:07:05;46602.41;;;-143.51;48.19
44309;BME280;30022;55.846;37.340;2023-04-25T04:09:34;46614.25;;;-143.51;47.25
44309;BME280;30022;55.846;37.340;2023-04-25T04:12:04;46626.09;;;-143.51;46.46
44309;BME280;30022;55.846;37.340;2023-04-25T04:14:31;46612.28;;;-143.51;46.21
44309;BME280;30022;55.846;37.340;2023-04-25T04:16:56;46630.03;;;-143.51;46.10
44309;BME280;30022;55.846;37.340;2023-04-25T04:19:22;46634.00;;;-143.51;45.54
44309;BME280;30022;55.846;37.340;2023-04-25T04:22:01;46667.56;;;-143.51;45.30
44309;BME280;30022;55.846;37.340;2023-04-25T04:24:26;46663.63;;;-143.51;45.38
44309;BME280;30022;55.846;37.340;2023-04-25T04:26:58;46639.91;;;-143.51;45.22
44309;BME280;30022;55.846;37.340;2023-04-25T04:29:35;46634.00;;;-143.51;45.09
44309;BME280;30022;55.846;37.340;2023-04-25T04:32:18;46669.53;;;-143.51;44.70
44309;BME280;30022;55.846;37.340;2023-04-25T04:34:44;46673.50;;;-143.51;45.06
44309;BME280;30022;55.846;37.340;2023-04-25T04:37:13;46645.84;;;-143.51;44.97
44309;BME280;30022;55.846;37.340;2023-04-25T04:39:40;46667.56;;;-143.51;45.07
44309;BME280;30022;55.846;37.340;2023-04-25T04:42:18;46643.88;;;-143.51;45.09
44309;BME280;30022;55.846;37.340;2023-04-25T04:45:00;46643.88;;;-143.51;44.99
44309;BME280;30022;55.846;37.340;2023-04-25T04:47:47;46641.88;;;-143.51;45.10
44309;BME280;30022;55.846;37.340;2023-04-25T04:50:42;46657.69;;;-143.51;45.04
44309;BME280;30022;55.846;37.340;2023-04-25T04:53:28;46661.63;;;-143.51;45.50
44309;BME280;30022;55.846;37.340;2023-04-25T04:56:07;46655.72;;;-143.51;46.53
44309;BME280;30022;55.846;37.340;2023-04-25T04:58:55;46626.09;;;-143.51;46.77
44309;BME280;30022;55.846;37.340;2023-04-25T05:01:56;46643.88;;;-143.51;46.87
44309;BME280;30022;55.846;37.340;2023-04-25T05:04:40;46697.19;;;-143.51;47.11
44309;BME280;30022;55.846;37.340;2023-04-25T05:07:29;46634.00;;;-143.51;46.38
44309;BME280;30022;55.846;37.340;2023-04-25T05:10:15;46657.69;;;-143.51;46.11
44309;BME280;30022;55.846;37.340;2023-04-25T05:13:01;46639.91;;;-143.51;46.42
44309;BME280;30022;55.846;37.340;2023-04-25T05:15:40;46661.63;;;-143.51;46.63
44309;BME280;30022;55.846;37.340;2023-04-25T05:18:41;46657.69;;;-143.51;46.34
44309;BME280;30022;55.846;37.340;2023-04-25T05:21:42;46659.66;;;-143.51;46.51
44309;BME280;30022;55.846;37.340;2023-04-25T05:24:34;46661.63;;;-143.51;46.68
44309;BME280;30022;55.846;37.340;2023-04-25T05:26:59;46655.72;;;-143.51;46.38
44309;BME280;30022;55.846;37.340;2023-04-25T05:29:42;46663.63;;;-143.51;46.04
44309;BME280;30022;55.846;37.340;2023-04-25T05:32:17;46657.69;;;-143.51;45.97
44309;BME280;30022;55.846;37.340;2023-04-25T05:34:44;46659.66;;;-143.51;45.95
44309;BME280;30022;55.846;37.340;2023-04-25T05:37:19;46651.75;;;-143.51;45.90
44309;BME280;30022;55.846;37.340;2023-04-25T05:39:53;46659.66;;;-143.51;45.42
44309;BME280;30022;55.846;37.340;2023-04-25T05:42:34;46677.44;;;-143.51;45.22
44309;BME280;30022;55.846;37.340;2023-04-25T05:45:19;46681.38;;;-143.51;45.18
44309;BME280;30022;55.846;37.340;2023-04-25T05:48:03;46665.59;;;-143.51;45.14
44309;BME280;30022;55.846;37.340;2023-04-25T05:50:49;46661.63;;;-143.51;45.17
44309;BME280;30022;55.846;37.340;2023-04-25T05:53:36;46661.63;;;-143.51;44.80
44309;BME280;30022;55.846;37.340;2023-04-25T05:56:03;46683.38;;;-143.51;44.93
44309;BME280;30022;55.846;37.340;2023-04-25T05:58:28;46667.56;;;-143.51;45.47
44309;BME280;30022;55.846;37.340;2023-04-25T06:00:55;46679.41;;;-143.51;45.33
44309;BME280;30022;55.846;37.340;2023-04-25T06:03:21;46681.38;;;-143.51;45.82
44309;BME280;30022;55.846;37.340;2023-04-25T06:05:48;46665.59;;;-143.51;45.43
44309;BME280;30022;55.846;37.340;2023-04-25T06:08:14;46703.13;;;-143.51;45.27
44309;BME280;30022;55.846;37.340;2023-04-25T06:10:39;46687.31;;;-143.51;45.12
44309;BME280;30022;55.846;37.340;2023-04-25T06:13:05;46703.13;;;-143.51;44.80
44309;BME280;30022;55.846;37.340;2023-04-25T06:15:33;46701.13;;;-143.51;44.90
44309;BME280;30022;55.846;37.340;2023-04-25T06:18:00;46683.38;;;-143.51;44.53
44309;BME280;30022;55.846;37.340;2023-04-25T06:20:25;46713.00;;;-143.51;44.57
44309;BME280;30022;55.846;37.340;2023-04-25T06:22:53;46693.25;;;-143.51;44.72
44309;BME280;30022;55.846;37.340;2023-04-25T06:25:22;46720.88;;;-143.51;44.46
44309;BME280;30022;55.846;37.340;2023-04-25T06:27:48;46711.00;;;-143.51;44.26
44309;BME280;30022;55.846;37.340;2023-04-25T06:30:14;46716.94;;;-143.51;44.20
44309;BME280;30022;55.846;37.340;2023-04-25T06:32:40;46711.00;;;-143.51;44.08
44309;BME280;30022;55.846;37.340;2023-04-25T06:35:06;46722.88;;;-143.51;43.84
44309;BME280;30022;55.846;37.340;2023-04-25T06:37:32;46736.69;;;-143.51;43.41
44309;BME280;30022;55.846;37.340;2023-04-25T06:39:58;46718.91;;;-143.51;43.59
44309;BME280;30022;55.846;37.340;2023-04-25T06:42:23;46714.97;;;-143.51;43.42
44309;BME280;30022;55.846;37.340;2023-04-25T06:44:56;46724.84;;;-143.51;42.69
44309;BME280;30022;55.846;37.340;2023-04-25T06:47:21;46740.63;;;-143.51;42.34
44309;BME280;30022;55.846;37.340;2023-04-25T06:49:48;46718.91;;;-143.51;42.60
44309;BME280;30022;55.846;37.340;2023-04-25T06:52:14;46713.00;;;-143.51;42.42
44309;BME280;30022;55.846;37.340;2023-04-25T06:54:40;46730.75;;;-143.51;42.39
44309;BME280;30022;55.846;37.340;2023-04-25T06:57:18;46720.88;;;-143.51;41.74
44309;BME280;30022;55.846;37.340;2023-04-25T06:59:44;46728.78;;;-143.51;41.61
44309;BME280;30022;55.846;37.340;2023-04-25T07:02:09;46742.59;;;-143.51;41.50
44309;BME280;30022;55.846;37.340;2023-04-25T07:04:35;46732.75;;;-143.51;41.48
44309;BME280;30022;55.846;37.340;2023-04-25T07:07:01;46722.88;;;-143.51;41.30
44309;BME280;30022;55.846;37.340;2023-04-25T07:09:38;46711.00;;;-143.51;40.90
44309;BME280;30022;55.846;37.340;2023-04-25T07:12:04;46742.59;;;-143.51;40.64
44309;BME280;30022;55.846;37.340;2023-04-25T07:14:30;46760.38;;;-143.51;40.72
44309;BME280;30022;55.846;37.340;2023-04-25T07:16:58;46750.50;;;-143.51;39.85
44309;BME280;30022;55.846;37.340;2023-04-25T07:19:25;46746.56;;;-143.51;39.99
44309;BME280;30022;55.846;37.340;2023-04-25T07:21:54;46746.56;;;-143.51;39.24
44309;BME280;30022;55.846;37.340;2023-04-25T07:24:20;46778.16;;;-143.51;38.90
44309;BME280;30022;55.846;37.340;2023-04-25T07:26:47;46742.59;;;-143.51;38.71
44309;BME280;30022;55.846;37.340;2023-04-25T07:29:27;46748.53;;;-143.51;38.53
44309;BME280;30022;55.846;37.340;2023-04-25T07:31:53;46738.66;;;-143.51;38.36
44309;BME280;30022;55.846;37.340;2023-04-25T07:34:20;46744.59;;;-143.51;37.89
44309;BME280;30022;55.846;37.340;2023-04-25T07:36:46;46742.59;;;-143.51;37.61
44309;BME280;30022;55.846;37.340;2023-04-25T07:39:12;46756.44;;;-143.51;37.85
44309;BME280;30022;55.846;37.340;2023-04-25T07:41:38;46756.44;;;-143.51;37.69
44309;BME280;30022;55.846;37.340;2023-04-25T07:44:04;46750.50;;;-143.51;37.78
44309;BME280;30022;55.846;37.340;2023-04-25T07:46:30;46752.47;;;-143.51;37.70
44309;BME280;30022;55.846;37.340;2023-04-25T07:48:56;46756.44;;;-143.51;37.83
44309;BME280;30022;55.846;37.340;2023-04-25T07:51:22;46776.19;;;-143.51;37.92
44309;BME280;30022;55.846;37.340;2023-04-25T07:53:49;46776.19;;;-143.51;38.06
44309;BME280;30022;55.846;37.340;2023-04-25T07:56:15;46750.50;;;-143.51;37.68
44309;BME280;30022;55.846;37.340;2023-04-25T07:58:44;46809.75;;;-143.51;37.46
44309;BME280;30022;55.846;37.340;2023-04-25T08:01:12;46760.38;;;-143.51;37.61
44309;BME280;30022;55.846;37.340;2023-04-25T08:03:59;46756.44;;;-143.51;37.09
44309;BME280;30022;55.846;37.340;2023-04-25T08:06:51;46760.38;;;-143.51;36.73
44309;BME280;30022;55.846;37.340;2023-04-25T08:09:22;46752.47;;;-143.51;37.13
44309;BME280;30022;55.846;37.340;2023-04-25T08:11:48;46799.88;;;-143.51;37.17
44309;BME280;30022;55.846;37.340;2023-04-25T08:14:16;46774.22;;;-143.51;36.37
44309;BME280;30022;55.846;37.340;2023-04-25T08:16:43;46772.22;;;-143.51;35.88
44309;BME280;30022;55.846;37.340;2023-04-25T08:19:09;46774.22;;;-143.51;35.40
44309;BME280;30022;55.846;37.340;2023-04-25T08:21:36;46760.38;;;-143.51;34.78
44309;BME280;30022;55.846;37.340;2023-04-25T08:24:05;46774.22;;;-143.51;35.01
44309;BME280;30022;55.846;37.340;2023-04-25T08:26:35;46762.34;;;-143.51;35.06
44309;BME280;30022;55.846;37.340;2023-04-25T08:29:02;46778.16;;;-143.51;34.97
44309;BME280;30022;55.846;37.340;2023-04-25T08:31:28;46788.03;;;-143.51;35.00
44309;BME280;30022;55.846;37.340;2023-04-25T08:33:57;46784.09;;;-143.51;35.09
44309;BME280;30022;55.846;37.340;2023-04-25T08:36:40;46793.97;;;-143.51;35.25
44309;BME280;30022;55.846;37.340;2023-04-25T08:39:28;46811.72;;;-143.51;35.00
44309;BME280;30022;55.846;37.340;2023-04-25T08:42:16;46809.75;;;-143.51;34.83
44309;BME280;30022;55.846;37.340;2023-04-25T08:44:43;46801.84;;;-143.51;34.67
44309;BME280;30022;55.846;37.340;2023-04-25T08:47:09;46823.59;;;-143.51;34.80
44309;BME280;30022;55.846;37.340;2023-04-25T08:49:44;46811.72;;;-143.51;34.93
44309;BME280;30022;55.846;37.340;2023-04-25T08:52:10;46791.97;;;-143.51;35.38
44309;BME280;30022;55.846;37.340;2023-04-25T08:54:36;46803.84;;;-143.51;35.56
44309;BME280;30022;55.846;37.340;2023-04-25T08:57:04;46805.81;;;-143.51;35.86
44309;BME280;30022;55.846;37.340;2023-04-25T08:59:31;46801.84;;;-143.51;36.14
44309;BME280;30022;55.846;37.340;2023-04-25T09:01:57;46784.09;;;-143.51;36.42
44309;BME280;30022;55.846;37.340;2023-04-25T09:04:23;46797.91;;;-143.51;36.48
44309;BME280;30022;55.846;37.340;2023-04-25T09:06:48;46795.94;;;-143.51;36.37
44309;BME280;30022;55.846;37.340;2023-04-25T09:09:14;46841.34;;;-143.51;36.37
44309;BME280;30022;55.846;37.340;2023-04-25T09:11:40;46851.22;;;-143.51;36.24
44309;BME280;30022;55.846;37.340;2023-04-25T09:14:17;46843.34;;;-143.51;36.28
44309;BME280;30022;55.846;37.340;2023-04-25T09:17:11;46851.22;;;-143.51;36.20
44309;BME280;30022;55.846;37.340;2023-04-25T09:19:46;46861.09;;;-143.51;36.31
44309;BME280;30022;55.846;37.340;2023-04-25T09:22:25;46863.09;;;-143.51;36.36
44309;BME280;30022;55.846;37.340;2023-04-25T09:24:51;46843.34;;;-143.51;36.60
44309;BME280;30022;55.846;37.340;2023-04-25T09:27:19;46857.16;;;-143.51;36.83
44309;BME280;30022;55.846;37.340;2023-04-25T09:29:47;46833.47;;;-143.51;37.00
44309;BME280;30022;55.846;37.340;2023-04-25T09:32:21;46853.22;;;-143.51;36.83
44309;BME280;30022;55.846;37.340;2023-04-25T09:34:50;46837.41;;;-143.51;36.36
44309;BME280;30022;55.846;37.340;2023-04-25T09:37:18;46839.38;;;-143.51;36.32
44309;BME280;30022;55.846;37.340;2023-04-25T09:40:05;46859.13;;;-143.51;35.61
44309;BME280;30022;55.846;37.340;2023-04-25T09:42:33;46841.34;;;-143.51;35.45
44309;BME280;30022;55.846;37.340;2023-04-25T09:45:00;46865.06;;;-143.51;35.41
44309;BME280;30022;55.846;37.340;2023-04-25T09:47:36;46876.91;;;-143.51;34.74
44309;BME280;30022;55.846;37.340;2023-04-25T09:50:03;46876.91;;;-143.51;34.58
44309;BME280;30022;55.846;37.340;2023-04-25T09:52:29;46876.91;;;-143.51;34.39
44309;BME280;30022;55.846;37.340;2023-04-25T09:55:09;46843.34;;;-143.51;34.92
44309;BME280;30022;55.846;37.340;2023-04-25T09:57:35;46839.38;;;-143.51;34.73
44309;BME280;30022;55.846;37.340;2023-04-25T10:00:01;46827.53;;;-143.51;34.92
44309;BME280;30022;55.846;37.340;2023-04-25T10:02:39;46839.38;;;-143.51;34.70
44309;BME280;30022;55.846;37.340;2023-04-25T10:05:08;46886.78;;;-143.51;34.87
44309;BME280;30022;55.846;37.340;2023-04-25T10:07:39;46839.38;;;-143.51;34.19
44309;BME280;30022;55.846;37.340;2023-04-25T10:10:12;46843.34;;;-143.51;34.18
44309;BME280;30022;55.846;37.340;2023-04-25T10:12:38;46870.97;;;-143.51;33.97
44309;BME280;30022;55.846;37.340;2023-04-25T10:15:06;46878.88;;;-143.51;33.98
44309;BME280;30022;55.846;37.340;2023-04-25T10:17:34;46847.28;;;-143.51;34.21
44309;BME280;30022;55.846;37.340;2023-04-25T10:20:04;46851.22;;;-143.51;34.21
44309;BME280;30022;55.846;37.340;2023-04-25T10:22:37;46865.06;;;-143.51;33.66
44309;BME280;30022;55.846;37.340;2023-04-25T10:25:03;46841.34;;;-143.51;33.62
44309;BME280;30022;55.846;37.340;2023-04-25T10:27:30;46825.56;;;-143.51;33.63
44309;BME280;30022;55.846;37.340;2023-04-25T10:30:06;46851.22;;;-143.51;33.70
44309;BME280;30022;55.846;37.340;2023-04-25T10:32:35;46837.41;;;-143.51;33.59
44309;BME280;30022;55.846;37.340;2023-04-25T10:35:23;46855.19;;;-143.51;33.72
44309;BME280;30022;55.846;37.340;2023-04-25T10:40:33;46853.22;;;-143.51;33.63
44309;BME280;30022;55.846;37.340;2023-04-25T10:45:52;46882.84;;;-143.51;33.79
44309;BME280;30022;55.846;37.340;2023-04-25T10:48:27;46857.16;;;-143.51;33.61
44309;BME280;30022;55.846;37.340;2023-04-25T10:51:09;46867.03;;;-143.51;33.71
44309;BME280;30022;55.846;37.340;2023-04-25T10:53:35;46878.88;;;-143.51;33.85
44309;BME280;30022;55.846;37.340;2023-04-25T10:56:08;46908.50;;;-143.51;33.98
44309;BME280;30022;55.846;37.340;2023-04-25T10:58:34;46872.97;;;-143.51;33.62
44309;BME280;30022;55.846;37.340;2023-04-25T11:01:00;46898.63;;;-143.51;33.51
44309;BME280;30022;55.846;37.340;2023-04-25T11:03:26;46912.47;;;-143.51;33.31
44309;BME280;30022;55.846;37.340;2023-04-25T11:05:52;46894.69;;;-143.51;33.50
44309;BME280;30022;55.846;37.340;2023-04-25T11:08:20;46892.72;;;-143.51;33.17
44309;BME280;30022;55.846;37.340;2023-04-25T11:10:51;46859.13;;;-143.51;33.29
44309;BME280;30022;55.846;37.340;2023-04-25T11:13:20;46878.88;;;-143.51;33.40
44309;BME280;30022;55.846;37.340;2023-04-25T11:15:50;46898.63;;;-143.51;33.49
44309;BME280;30022;55.846;37.340;2023-04-25T11:18:16;46886.78;;;-143.51;33.53
44309;BME280;30022;55.846;37.340;2023-04-25T11:20:43;46876.91;;;-143.51;33.54
44309;BME280;30022;55.846;37.340;2023-04-25T11:23:09;46890.72;;;-143.51;33.56
44309;BME280;30022;55.846;37.340;2023-04-25T11:25:34;46888.75;;;-143.51;33.54
44309;BME280;30022;55.846;37.340;2023-04-25T11:28:00;46910.47;;;-143.51;33.51
44309;BME280;30022;55.846;37.340;2023-04-25T11:30:26;46932.22;;;-143.51;33.46
44309;BME280;30022;55.846;37.340;2023-04-25T11:32:52;46910.47;;;-143.51;33.39
44309;BME280;30022;55.846;37.340;2023-04-25T11:35:18;46924.31;;;-143.51;32.93
44309;BME280;30022;55.846;37.340;2023-04-25T11:37:45;46876.91;;;-143.51;33.27
44309;BME280;30022;55.846;37.340;2023-04-25T11:40:11;46902.59;;;-143.51;32.88
44309;BME280;30022;55.846;37.340;2023-04-25T11:42:37;46863.09;;;-143.51;32.64
44309;BME280;30022;55.846;37.340;2023-04-25T11:45:03;46894.69;;;-143.51;32.93
44309;BME280;30022;55.846;37.340;2023-04-25T11:47:30;46892.72;;;-143.51;32.66
44309;BME280;30022;55.846;37.340;2023-04-25T11:49:57;46896.66;;;-143.51;32.41
44309;BME280;30022;55.846;37.340;2023-04-25T11:52:23;46926.28;;;-143.51;32.42
44309;BME280;30022;55.846;37.340;2023-04-25T11:54:48;46902.59;;;-143.51;32.45
44309;BME280;30022;55.846;37.340;2023-04-25T11:57:14;46910.47;;;-143.51;32.49
44309;BME280;30022;55.846;37.340;2023-04-25T11:59:40;46918.38;;;-143.51;32.33
44309;BME280;30022;55.846;37.340;2023-04-25T12:02:06;46938.13;;;-143.51;32.14
44309;BME280;30022;55.846;37.340;2023-04-25T12:04:32;46926.28;;;-143.51;31.88
44309;BME280;30022;55.846;37.340;2023-04-25T12:06:57;46922.34;;;-143.51;31.86
44309;BME280;30022;55.846;37.340;2023-04-25T12:09:29;46900.59;;;-143.51;31.94
44309;BME280;30022;55.846;37.340;2023-04-25T12:11:55;46922.34;;;-143.51;31.91
44309;BME280;30022;55.846;37.340;2023-04-25T12:14:22;46928.25;;;-143.51;31.83
44309;BME280;30022;55.846;37.340;2023-04-25T12:16:49;46922.34;;;-143.51;31.49
44309;BME280;30022;55.846;37.340;2023-04-25T12:19:17;46914.44;;;-143.51;31.84
44309;BME280;30022;55.846;37.340;2023-04-25T12:21:43;46944.06;;;-143.51;31.82
44309;BME280;30022;55.846;37.340;2023-04-25T12:24:22;46926.28;;;-143.51;31.28
44309;BME280;30022;55.846;37.340;2023-04-25T12:26:52;46953.94;;;-143.51;31.30
44309;BME280;30022;55.846;37.340;2023-04-25T12:29:21;46957.88;;;-143.51;31.42
44309;BME280;30022;55.846;37.340;2023-04-25T12:31:47;46955.91;;;-143.51;31.19
44309;BME280;30022;55.846;37.340;2023-04-25T12:34:13;46938.13;;;-143.51;31.15
44309;BME280;30022;55.846;37.340;2023-04-25T12:36:39;46946.03;;;-143.51;31.30
44309;BME280;30022;55.846;37.340;2023-04-25T12:39:05;46906.53;;;-143.51;31.28
44309;BME280;30022;55.846;37.340;2023-04-25T12:41:32;46841.34;;;-143.51;31.28
44309;BME280;30022;55.846;37.340;2023-04-25T12:43:57;46849.25;;;-143.51;31.42
44309;BME280;30022;55.846;37.340;2023-04-25T12:46:23;46882.84;;;-143.51;31.59
44309;BME280;30022;55.846;37.340;2023-04-25T12:48:49;46859.13;;;-143.51;31.66